ITF152 LFLL-LFST
Flight info
| Callsign | ITF152 |
|---|---|
| Flight time | N/A |
| Altitude | 18000 |
| Route | ALURA8S ALURA A6 DJL T37 KASON G21 RLP/N0380F170 R11 EPL EPL1B |
| Aircraft | A320/M-SDE3FGHIRWY/LB1 |
Departure
| Time | 2026-05-01 09:31 |
|---|---|
| Airport | Lyon Saint-Exupéry Airport (LFLL) |
Arrival
| Time | N/A |
|---|---|
| Airport | Strasbourg Airport (LFST) |
| Time | Latitude | Longitude | Altitude | Speed | Heading |
|---|---|---|---|---|---|
| 2026-05-01 09:03 | 45.72356 | 5.08186 | 792 ft | 0 kts | 352° |
| 2026-05-01 09:16 | 45.72355 | 5.08186 | 792 ft | 0 kts | 352° |
| 2026-05-01 09:18 | 45.72346 | 5.08188 | 793 ft | 2 kts | 351° |
| 2026-05-01 09:19 | 45.72316 | 5.08193 | 793 ft | 2 kts | 353° |
| 2026-05-01 09:19 | 45.72301 | 5.08195 | 793 ft | 1 kts | 354° |
| 2026-05-01 09:19 | 45.72298 | 5.08196 | 793 ft | 0 kts | 354° |
| 2026-05-01 09:20 | 45.72306 | 5.08214 | 793 ft | 3 kts | 83° |
| 2026-05-01 09:20 | 45.72309 | 5.08244 | 793 ft | 0 kts | 79° |
| 2026-05-01 09:23 | 45.72315 | 5.08280 | 793 ft | 4 kts | 77° |
| 2026-05-01 09:24 | 45.72328 | 5.08391 | 794 ft | 5 kts | 113° |
| 2026-05-01 09:24 | 45.72303 | 5.08413 | 795 ft | 4 kts | 179° |
| 2026-05-01 09:24 | 45.72242 | 5.08410 | 796 ft | 4 kts | 172° |
| 2026-05-01 09:25 | 45.72238 | 5.08426 | 796 ft | 6 kts | 355° |
| 2026-05-01 09:25 | 45.72423 | 5.08402 | 792 ft | 17 kts | 356° |
| 2026-05-01 09:26 | 45.72545 | 5.08383 | 790 ft | 17 kts | 358° |
| 2026-05-01 09:26 | 45.72849 | 5.08350 | 783 ft | 24 kts | 355° |
| 2026-05-01 09:26 | 45.73018 | 5.08330 | 779 ft | 24 kts | 355° |
| 2026-05-01 09:27 | 45.73367 | 5.08287 | 772 ft | 25 kts | 355° |
| 2026-05-01 09:27 | 45.73543 | 5.08266 | 769 ft | 25 kts | 355° |
| 2026-05-01 09:27 | 45.73721 | 5.08243 | 767 ft | 25 kts | 355° |
| 2026-05-01 09:28 | 45.73897 | 5.08219 | 764 ft | 25 kts | 355° |
| 2026-05-01 09:28 | 45.74068 | 5.08229 | 764 ft | 23 kts | 12° |
| 2026-05-01 09:28 | 45.74220 | 5.08277 | 766 ft | 22 kts | 13° |
| 2026-05-01 09:28 | 45.74366 | 5.08329 | 766 ft | 21 kts | 14° |
| 2026-05-01 09:29 | 45.74637 | 5.08482 | 761 ft | 22 kts | 82° |
| 2026-05-01 09:29 | 45.74601 | 5.08604 | 762 ft | 7 kts | 183° |
| 2026-05-01 09:30 | 45.74474 | 5.08618 | 764 ft | 11 kts | 175° |
| 2026-05-01 09:30 | 45.74281 | 5.08643 | 767 ft | 59 kts | 174° |
| 2026-05-01 09:30 | 45.72540 | 5.08851 | 1029 ft | 165 kts | 175° |
| 2026-05-01 09:31 | 45.71419 | 5.08980 | 1801 ft | 161 kts | 175° |
| 2026-05-01 09:31 | 45.70299 | 5.09112 | 2468 ft | 168 kts | 176° |
| 2026-05-01 09:31 | 45.67826 | 5.09414 | 3692 ft | 196 kts | 177° |
| 2026-05-01 09:32 | 45.66450 | 5.09845 | 4242 ft | 216 kts | 153° |
| 2026-05-01 09:32 | 45.65305 | 5.13849 | 5794 ft | 244 kts | 73° |
| 2026-05-01 09:32 | 45.66205 | 5.15799 | 6833 ft | 243 kts | 34° |
| 2026-05-01 09:33 | 45.67725 | 5.16780 | 7770 ft | 240 kts | 13° |
| 2026-05-01 09:33 | 45.69317 | 5.17416 | 8612 ft | 245 kts | 12° |
| 2026-05-01 09:33 | 45.72610 | 5.18768 | 10372 ft | 251 kts | 13° |
| 2026-05-01 09:34 | 45.74283 | 5.19449 | 11237 ft | 251 kts | 4° |
| 2026-05-01 09:34 | 45.75950 | 5.19320 | 12088 ft | 243 kts | 337° |
| 2026-05-01 09:34 | 45.79055 | 5.16891 | 13168 ft | 271 kts | 326° |
| 2026-05-01 09:35 | 45.80693 | 5.15472 | 13619 ft | 288 kts | 326° |
| 2026-05-01 09:35 | 45.84355 | 5.12361 | 14446 ft | 325 kts | 327° |
| 2026-05-01 09:35 | 45.86368 | 5.10669 | 14806 ft | 343 kts | 327° |
| 2026-05-01 09:36 | 45.88473 | 5.08903 | 15118 ft | 361 kts | 327° |
| 2026-05-01 09:36 | 45.90745 | 5.07196 | 15407 ft | 379 kts | 333° |
| 2026-05-01 09:36 | 45.93270 | 5.05891 | 15698 ft | 397 kts | 341° |
| 2026-05-01 09:36 | 45.96027 | 5.05084 | 16240 ft | 406 kts | 348° |
| 2026-05-01 09:37 | 45.98828 | 5.04552 | 16932 ft | 409 kts | 350° |
| 2026-05-01 09:37 | 46.04506 | 5.03570 | 18066 ft | 416 kts | 349° |
| 2026-05-01 09:37 | 46.07386 | 5.03063 | 18257 ft | 417 kts | 349° |
| 2026-05-01 09:38 | 46.13121 | 5.02032 | 18261 ft | 416 kts | 349° |
| 2026-05-01 09:38 | 46.15986 | 5.01511 | 18262 ft | 416 kts | 349° |
| 2026-05-01 09:38 | 46.18866 | 5.00984 | 18262 ft | 415 kts | 349° |
| 2026-05-01 09:39 | 46.24596 | 4.99934 | 18263 ft | 415 kts | 349° |
| 2026-05-01 09:39 | 46.27460 | 4.99408 | 18264 ft | 415 kts | 349° |
| 2026-05-01 09:39 | 46.30296 | 4.98886 | 18264 ft | 415 kts | 349° |
| 2026-05-01 09:40 | 46.33187 | 4.98355 | 18265 ft | 415 kts | 349° |
| 2026-05-01 09:40 | 46.38893 | 4.97303 | 18266 ft | 414 kts | 349° |
| 2026-05-01 09:40 | 46.41727 | 4.96779 | 18267 ft | 414 kts | 349° |
| 2026-05-01 09:41 | 46.44605 | 4.96247 | 18267 ft | 414 kts | 349° |
| 2026-05-01 09:41 | 46.50359 | 4.95656 | 18268 ft | 417 kts | 356° |
| 2026-05-01 09:41 | 46.53253 | 4.95850 | 18269 ft | 420 kts | 1° |
| 2026-05-01 09:42 | 46.56181 | 4.96319 | 18270 ft | 421 kts | 3° |
| 2026-05-01 09:42 | 46.59047 | 4.96853 | 18270 ft | 421 kts | 3° |
| 2026-05-01 09:42 | 46.64856 | 4.97962 | 18269 ft | 421 kts | 3° |
| 2026-05-01 09:43 | 46.70691 | 4.99063 | 18269 ft | 421 kts | 3° |
| 2026-05-01 09:43 | 46.73579 | 4.99604 | 18268 ft | 422 kts | 3° |
| 2026-05-01 09:43 | 46.76506 | 5.00152 | 18267 ft | 422 kts | 3° |
| 2026-05-01 09:44 | 46.82321 | 5.01242 | 18265 ft | 422 kts | 4° |
| 2026-05-01 09:44 | 46.85191 | 5.01779 | 18264 ft | 422 kts | 4° |
| 2026-05-01 09:44 | 46.88118 | 5.02329 | 18263 ft | 422 kts | 4° |
| 2026-05-01 09:45 | 46.91041 | 5.02881 | 18263 ft | 422 kts | 3° |
| 2026-05-01 09:45 | 46.96867 | 5.03985 | 18262 ft | 424 kts | 2° |
| 2026-05-01 09:45 | 46.99798 | 5.04540 | 18262 ft | 425 kts | 2° |
| 2026-05-01 09:46 | 47.02704 | 5.05089 | 18261 ft | 426 kts | 1° |
| 2026-05-01 09:46 | 47.05666 | 5.05648 | 18261 ft | 428 kts | 1° |
| 2026-05-01 09:46 | 47.08588 | 5.06196 | 18262 ft | 428 kts | 1° |
| 2026-05-01 09:46 | 47.11575 | 5.06757 | 18262 ft | 428 kts | 1° |
| 2026-05-01 09:47 | 47.14523 | 5.07315 | 18262 ft | 428 kts | 1° |
| 2026-05-01 09:47 | 47.17465 | 5.07873 | 18262 ft | 428 kts | 1° |
| 2026-05-01 09:47 | 47.20389 | 5.08428 | 18262 ft | 428 kts | 1° |
| 2026-05-01 09:47 | 47.23334 | 5.08945 | 18258 ft | 425 kts | 358° |
| 2026-05-01 09:48 | 47.26256 | 5.08658 | 18254 ft | 413 kts | 342° |
| 2026-05-01 09:48 | 47.28923 | 5.07292 | 18259 ft | 403 kts | 328° |
| 2026-05-01 09:48 | 47.31231 | 5.05083 | 18268 ft | 397 kts | 319° |
| 2026-05-01 09:48 | 47.33419 | 5.02607 | 18265 ft | 397 kts | 317° |
| 2026-05-01 09:49 | 47.35583 | 5.00111 | 18263 ft | 397 kts | 317° |
| 2026-05-01 09:49 | 47.37770 | 4.97594 | 18263 ft | 397 kts | 317° |
| 2026-05-01 09:49 | 47.39953 | 4.95093 | 18262 ft | 397 kts | 317° |
| 2026-05-01 09:49 | 47.42141 | 4.92596 | 18262 ft | 398 kts | 317° |
| 2026-05-01 09:50 | 47.44328 | 4.90102 | 18262 ft | 398 kts | 317° |
| 2026-05-01 09:50 | 47.46529 | 4.87590 | 18262 ft | 398 kts | 318° |
| 2026-05-01 09:50 | 47.48726 | 4.85081 | 18262 ft | 399 kts | 318° |
| 2026-05-01 09:50 | 47.51046 | 4.82825 | 18249 ft | 406 kts | 329° |
| 2026-05-01 09:51 | 47.53805 | 4.81540 | 18256 ft | 418 kts | 346° |
| 2026-05-01 09:51 | 47.56729 | 4.81494 | 18258 ft | 431 kts | 2° |
| 2026-05-01 09:51 | 47.59653 | 4.82796 | 18258 ft | 443 kts | 21° |
| 2026-05-01 09:51 | 47.62195 | 4.85359 | 18268 ft | 447 kts | 36° |
| 2026-05-01 09:52 | 47.64523 | 4.88523 | 18268 ft | 447 kts | 39° |
| 2026-05-01 09:52 | 47.66762 | 4.91707 | 18265 ft | 446 kts | 39° |
| 2026-05-01 09:52 | 47.69004 | 4.94891 | 18264 ft | 446 kts | 39° |
| 2026-05-01 09:52 | 47.71238 | 4.98027 | 18263 ft | 446 kts | 39° |
| 2026-05-01 09:53 | 47.73533 | 5.01220 | 18263 ft | 445 kts | 38° |
| 2026-05-01 09:53 | 47.75857 | 5.04437 | 18263 ft | 445 kts | 38° |
| 2026-05-01 09:53 | 47.78133 | 5.07581 | 18263 ft | 445 kts | 38° |
| 2026-05-01 09:53 | 47.80417 | 5.10737 | 18262 ft | 445 kts | 38° |
| 2026-05-01 09:54 | 47.82723 | 5.13926 | 18262 ft | 445 kts | 38° |
| 2026-05-01 09:54 | 47.84967 | 5.17035 | 18262 ft | 445 kts | 38° |
| 2026-05-01 09:54 | 47.87238 | 5.20188 | 18262 ft | 445 kts | 38° |
| 2026-05-01 09:54 | 47.89482 | 5.23430 | 18262 ft | 447 kts | 41° |
| 2026-05-01 09:55 | 47.91576 | 5.26830 | 18262 ft | 449 kts | 45° |
| 2026-05-01 09:55 | 47.93558 | 5.30466 | 18262 ft | 450 kts | 48° |
| 2026-05-01 09:55 | 47.95457 | 5.34145 | 18263 ft | 450 kts | 49° |
| 2026-05-01 09:55 | 47.97334 | 5.37832 | 18263 ft | 450 kts | 49° |
| 2026-05-01 09:56 | 47.99231 | 5.41563 | 18264 ft | 450 kts | 49° |
| 2026-05-01 09:56 | 48.01131 | 5.45295 | 18267 ft | 450 kts | 48° |
| 2026-05-01 09:56 | 48.03015 | 5.48991 | 18270 ft | 450 kts | 48° |
| 2026-05-01 09:56 | 48.04918 | 5.52723 | 18274 ft | 450 kts | 48° |
| 2026-05-01 09:57 | 48.06805 | 5.56426 | 18278 ft | 449 kts | 48° |
| 2026-05-01 09:57 | 48.08718 | 5.60185 | 18281 ft | 449 kts | 48° |
| 2026-05-01 09:57 | 48.10620 | 5.63924 | 18283 ft | 449 kts | 48° |
| 2026-05-01 09:57 | 48.12497 | 5.67618 | 18283 ft | 450 kts | 49° |
| 2026-05-01 09:58 | 48.14397 | 5.71366 | 18285 ft | 450 kts | 49° |
| 2026-05-01 09:58 | 48.16305 | 5.75133 | 18285 ft | 450 kts | 49° |
| 2026-05-01 09:58 | 48.18173 | 5.78828 | 18044 ft | 449 kts | 49° |
| 2026-05-01 09:58 | 48.20048 | 5.82541 | 17557 ft | 445 kts | 49° |
| 2026-05-01 09:59 | 48.21918 | 5.86251 | 17047 ft | 441 kts | 49° |
| 2026-05-01 09:59 | 48.23756 | 5.89900 | 16463 ft | 438 kts | 49° |
| 2026-05-01 09:59 | 48.25581 | 5.93530 | 15848 ft | 434 kts | 49° |
| 2026-05-01 09:59 | 48.27381 | 5.97115 | 15225 ft | 431 kts | 49° |
| 2026-05-01 10:00 | 48.29174 | 6.00689 | 14592 ft | 428 kts | 50° |
| 2026-05-01 10:00 | 48.30821 | 6.04415 | 14055 ft | 425 kts | 60° |
| 2026-05-01 10:00 | 48.31804 | 6.08550 | 13637 ft | 418 kts | 77° |
| 2026-05-01 10:00 | 48.32098 | 6.12831 | 13378 ft | 406 kts | 87° |